createdAt,value
2023-03-29T00:01:43.591Z,2.53
2023-03-29T00:04:13.638Z,2.07
2023-03-29T00:06:42.139Z,1.77
2023-03-29T00:09:10.934Z,3.00
2023-03-29T00:11:39.695Z,2.50
2023-03-29T00:14:08.197Z,3.63
2023-03-29T00:16:38.639Z,1.80
2023-03-29T00:19:07.627Z,2.00
2023-03-29T00:21:36.142Z,1.63
2023-03-29T00:24:04.611Z,2.43
2023-03-29T00:26:33.825Z,2.83
2023-03-29T00:29:04.511Z,1.43
2023-03-29T00:31:33.316Z,2.70
2023-03-29T00:34:03.352Z,1.60
2023-03-29T00:36:32.411Z,1.97
2023-03-29T00:39:00.795Z,1.70
2023-03-29T00:41:29.382Z,1.57
2023-03-29T00:43:59.628Z,1.93
2023-03-29T00:46:28.836Z,2.20
2023-03-29T00:48:59.140Z,1.80
2023-03-29T00:51:32.110Z,1.20
2023-03-29T00:54:02.092Z,1.33
2023-03-29T00:56:32.124Z,2.27
2023-03-29T00:59:02.291Z,1.20
2023-03-29T01:01:34.266Z,3.23
2023-03-29T01:04:04.356Z,1.27
2023-03-29T01:06:37.012Z,2.13
2023-03-29T01:09:09.490Z,2.00
2023-03-29T01:11:40.141Z,1.50
2023-03-29T01:14:09.735Z,3.23
2023-03-29T01:16:39.805Z,2.43
2023-03-29T01:19:10.113Z,1.27
2023-03-29T01:21:43.757Z,1.80
2023-03-29T01:24:32.655Z,2.20
2023-03-29T01:27:05.390Z,2.10
2023-03-29T01:29:39.195Z,1.47
2023-03-29T01:32:11.170Z,2.00
2023-03-29T01:34:42.807Z,1.67
2023-03-29T01:37:13.627Z,3.80
2023-03-29T01:39:42.298Z,2.13
2023-03-29T01:42:16.343Z,1.77
2023-03-29T01:44:49.596Z,1.60
2023-03-29T01:47:20.880Z,2.63
2023-03-29T01:55:13.735Z,1.23
2023-03-29T01:57:44.891Z,1.80
2023-03-29T02:00:16.925Z,1.47
2023-03-29T02:02:47.962Z,1.57
2023-03-29T02:05:17.486Z,3.83
2023-03-29T02:07:48.164Z,1.90
2023-03-29T02:10:16.924Z,1.70
2023-03-29T02:12:45.818Z,2.80
2023-03-29T02:15:15.659Z,1.30
2023-03-29T02:17:48.804Z,3.07
2023-03-29T02:20:19.624Z,5.00
2023-03-29T02:22:51.395Z,1.90
2023-03-29T02:25:20.386Z,1.63
2023-03-29T02:27:50.110Z,2.43
2023-03-29T02:30:20.987Z,2.33
2023-03-29T02:32:54.597Z,3.77
2023-03-29T02:35:28.138Z,1.13
2023-03-29T02:37:57.824Z,3.00
2023-03-29T02:40:27.160Z,1.50
2023-03-29T02:42:56.820Z,1.67
2023-03-29T02:45:26.379Z,1.20
2023-03-29T02:47:58.325Z,1.40
2023-03-29T02:50:27.906Z,1.33
2023-03-29T02:52:59.480Z,1.80
2023-03-29T02:55:31.622Z,1.50
2023-03-29T02:58:03.516Z,2.00
2023-03-29T03:00:32.509Z,1.40
2023-03-29T03:03:03.393Z,1.53
2023-03-29T03:05:31.983Z,2.33
2023-03-29T03:08:00.826Z,2.20
2023-03-29T03:10:29.323Z,2.07
2023-03-29T03:12:57.851Z,1.73
2023-03-29T03:15:26.495Z,1.00
2023-03-29T03:17:55.001Z,1.20
2023-03-29T03:20:26.673Z,1.20
2023-03-29T03:22:57.506Z,1.20
2023-03-29T03:25:26.214Z,3.80
2023-03-29T03:27:54.779Z,1.53
2023-03-29T03:30:23.528Z,1.53
2023-03-29T03:32:52.181Z,1.13
2023-03-29T03:35:20.984Z,1.10
2023-03-29T03:37:51.524Z,3.20
2023-03-29T03:40:20.919Z,1.73
2023-03-29T03:42:49.573Z,1.73
2023-03-29T03:45:18.096Z,2.10
2023-03-29T03:47:47.348Z,1.37
2023-03-29T03:50:15.840Z,1.87
2023-03-29T03:52:44.804Z,1.27
2023-03-29T03:55:14.750Z,2.40
2023-03-29T03:57:43.238Z,1.23
2023-03-29T04:00:19.440Z,1.40
2023-03-29T04:02:49.230Z,1.20
2023-03-29T04:05:18.211Z,3.30
2023-03-29T04:07:46.895Z,0.93
2023-03-29T04:10:17.522Z,2.20
2023-03-29T04:12:46.054Z,1.83
2023-03-29T04:15:14.781Z,2.07
2023-03-29T04:17:43.458Z,1.27
2023-03-29T04:20:12.963Z,1.23
2023-03-29T04:22:41.902Z,1.10
2023-03-29T04:25:12.678Z,0.90
2023-03-29T04:27:42.481Z,1.67
2023-03-29T04:30:11.293Z,2.50
2023-03-29T04:32:39.718Z,1.30
2023-03-29T04:35:08.508Z,2.20
2023-03-29T04:37:37.076Z,1.17
2023-03-29T04:40:08.917Z,1.50
2023-03-29T04:42:37.418Z,1.67
2023-03-29T04:45:08.068Z,1.77
2023-03-29T04:47:39.631Z,1.30
2023-03-29T04:50:08.682Z,2.23
2023-03-29T04:52:37.194Z,2.10
2023-03-29T04:55:06.775Z,2.10
2023-03-29T04:57:35.396Z,0.93
2023-03-29T05:00:08.315Z,1.70
2023-03-29T05:02:38.132Z,2.17
2023-03-29T05:05:06.697Z,3.10
2023-03-29T05:07:37.904Z,1.40
2023-03-29T05:10:07.868Z,1.07
2023-03-29T05:12:36.758Z,1.47
2023-03-29T05:15:05.239Z,4.07
2023-03-29T05:17:34.651Z,1.00
2023-03-29T05:20:09.372Z,1.33
2023-03-29T05:22:38.394Z,2.73
2023-03-29T05:25:07.260Z,1.17
2023-03-29T05:27:36.207Z,1.23
2023-03-29T05:30:04.853Z,4.33
2023-03-29T05:32:33.330Z,2.97
2023-03-29T05:35:02.973Z,0.97
2023-03-29T05:37:50.544Z,1.47
2023-03-29T05:40:19.237Z,2.73
2023-03-29T05:42:48.781Z,1.37
2023-03-29T05:45:17.902Z,1.93
2023-03-29T05:47:46.357Z,1.37
2023-03-29T05:50:14.648Z,3.40
2023-03-29T05:52:44.851Z,1.77
2023-03-29T05:55:13.889Z,1.17
2023-03-29T05:57:42.214Z,1.13
2023-03-29T06:00:19.795Z,1.17
2023-03-29T06:02:48.174Z,3.57
2023-03-29T06:05:16.754Z,2.03
2023-03-29T06:07:48.774Z,1.40
2023-03-29T06:10:18.044Z,2.20
2023-03-29T06:12:47.025Z,3.80
2023-03-29T06:15:15.951Z,1.00
2023-03-29T06:17:45.971Z,3.17
2023-03-29T06:20:15.029Z,0.93
2023-03-29T06:22:43.546Z,2.20
2023-03-29T06:25:16.386Z,1.57
2023-03-29T06:27:47.417Z,1.17
2023-03-29T06:30:16.548Z,1.40
2023-03-29T06:32:45.135Z,1.97
2023-03-29T06:35:13.612Z,0.83
2023-03-29T06:37:49.480Z,4.60
2023-03-29T06:40:19.720Z,1.27
2023-03-29T06:42:48.206Z,2.97
2023-03-29T06:45:16.943Z,2.27
2023-03-29T06:47:45.468Z,5.63
2023-03-29T06:50:14.705Z,2.47
2023-03-29T06:52:43.084Z,2.60
2023-03-29T06:55:12.410Z,2.37
2023-03-29T06:57:42.640Z,2.30
2023-03-29T07:00:18.258Z,0.63
2023-03-29T07:02:47.440Z,5.40
2023-03-29T07:05:16.205Z,1.83
2023-03-29T07:07:56.738Z,2.60
2023-03-29T07:10:26.280Z,0.90
2023-03-29T07:12:56.438Z,1.70
2023-03-29T07:15:25.099Z,1.77
2023-03-29T07:17:53.805Z,4.73
2023-03-29T07:20:22.999Z,4.87
2023-03-29T07:22:52.195Z,4.77
2023-03-29T07:25:21.577Z,5.50
2023-03-29T07:27:50.225Z,3.43
2023-03-29T07:30:23.707Z,2.03
2023-03-29T07:32:53.752Z,1.43
2023-03-29T07:35:23.483Z,1.27
2023-03-29T07:38:02.875Z,3.10
2023-03-29T07:40:36.948Z,3.20
2023-03-29T07:43:08.854Z,4.03
2023-03-29T07:45:40.827Z,3.23
2023-03-29T07:48:09.930Z,1.23
2023-03-29T07:50:48.204Z,1.60
2023-03-29T07:55:54.891Z,5.00
2023-03-29T07:58:35.379Z,5.30
2023-03-29T08:01:12.856Z,1.47
2023-03-29T08:03:43.848Z,1.60
2023-03-29T08:06:15.176Z,4.47
2023-03-29T08:08:47.008Z,7.73
2023-03-29T08:11:15.500Z,1.60
2023-03-29T08:13:43.931Z,1.00
2023-03-29T08:16:17.374Z,2.57
2023-03-29T08:18:46.335Z,1.23
2023-03-29T08:21:18.032Z,1.33
2023-03-29T08:23:47.817Z,2.10
2023-03-29T08:26:17.583Z,3.70
2023-03-29T08:29:07.254Z,6.40
2023-03-29T08:31:53.426Z,2.37
2023-03-29T08:34:21.928Z,2.07
2023-03-29T08:36:54.603Z,8.23
2023-03-29T08:39:23.599Z,1.43
2023-03-29T08:42:04.205Z,1.40
2023-03-29T08:45:02.049Z,1.60
2023-03-29T08:47:51.862Z,1.30
2023-03-29T08:50:25.330Z,1.63
2023-03-29T08:52:58.104Z,1.63
2023-03-29T08:55:28.853Z,2.67
2023-03-29T08:57:58.300Z,0.80
2023-03-29T09:00:29.133Z,1.23
2023-03-29T09:03:02.440Z,1.27
2023-03-29T09:05:35.083Z,3.00
2023-03-29T09:08:03.548Z,3.50
2023-03-29T09:10:36.511Z,0.80
2023-03-29T09:13:12.863Z,0.97
2023-03-29T09:15:45.711Z,1.53
2023-03-29T09:18:20.538Z,1.40
2023-03-29T09:20:59.198Z,3.40
2023-03-29T09:29:59.257Z,2.17
2023-03-29T09:32:31.355Z,3.73
2023-03-29T09:35:09.448Z,3.50
2023-03-29T09:37:49.147Z,1.27
2023-03-29T09:40:20.973Z,1.17
2023-03-29T09:42:51.290Z,1.93
2023-03-29T09:45:29.315Z,1.20
2023-03-29T09:48:01.091Z,2.57
2023-03-29T09:50:33.187Z,1.63
2023-03-29T09:53:03.751Z,2.43
2023-03-29T09:55:34.302Z,2.00
2023-03-29T09:58:04.205Z,2.40
2023-03-29T10:00:32.651Z,2.47
2023-03-29T10:03:13.626Z,2.77
2023-03-29T10:05:43.376Z,1.23
2023-03-29T10:08:20.253Z,1.63
2023-03-29T10:10:48.935Z,1.23
2023-03-29T10:13:20.568Z,2.20
2023-03-29T10:15:59.165Z,1.83
2023-03-29T10:18:28.186Z,2.13
2023-03-29T10:21:00.392Z,1.53
2023-03-29T10:23:33.847Z,1.90
2023-03-29T10:26:09.700Z,3.20
2023-03-29T10:31:30.728Z,0.97
2023-03-29T10:34:02.849Z,5.67
2023-03-29T10:45:05.215Z,3.37
2023-03-29T10:47:36.558Z,2.10
2023-03-29T10:50:12.191Z,1.17
2023-03-29T10:52:45.398Z,1.90
2023-03-29T10:55:30.252Z,2.90
2023-03-29T10:58:04.526Z,1.70
2023-03-29T11:00:50.184Z,1.33
2023-03-29T11:03:58.335Z,3.20
2023-03-29T11:06:33.271Z,2.50
2023-03-29T11:18:35.981Z,4.20
2023-03-29T11:21:16.676Z,2.63
2023-03-29T11:24:03.180Z,2.03
2023-03-29T11:26:56.392Z,4.10
2023-03-29T11:29:32.026Z,1.40
2023-03-29T11:32:17.445Z,1.50
2023-03-29T11:38:03.857Z,4.53
2023-03-29T11:43:55.555Z,2.17
2023-03-29T11:46:34.027Z,2.80
2023-03-29T11:49:04.388Z,1.73
2023-03-29T11:51:34.899Z,3.37
2023-03-29T11:54:07.949Z,1.07
2023-03-29T11:56:51.796Z,1.40
2023-03-29T11:59:24.523Z,2.17
2023-03-29T12:01:54.807Z,2.90
2023-03-29T12:04:26.165Z,2.17
2023-03-29T12:06:57.330Z,3.23
2023-03-29T12:09:35.754Z,3.57
2023-03-29T12:12:18.845Z,2.53
2023-03-29T12:14:51.701Z,1.17
2023-03-29T12:17:29.478Z,3.43
2023-03-29T12:20:02.669Z,1.33
2023-03-29T12:22:47.150Z,3.20
2023-03-29T12:25:23.218Z,2.60
2023-03-29T12:28:16.681Z,1.37
2023-03-29T12:30:51.742Z,1.87
2023-03-29T12:33:52.930Z,1.83
2023-03-29T12:36:32.870Z,1.97
2023-03-29T12:39:07.890Z,3.40
2023-03-29T12:41:41.679Z,2.73
2023-03-29T12:44:15.417Z,4.23
2023-03-29T12:46:44.035Z,2.70
2023-03-29T12:49:57.370Z,2.60
2023-03-29T12:52:29.661Z,1.70
2023-03-29T12:54:59.786Z,1.87
2023-03-29T12:57:32.616Z,1.63
2023-03-29T13:00:31.777Z,2.67
2023-03-29T13:03:02.501Z,2.07
2023-03-29T13:05:32.450Z,1.20
2023-03-29T13:08:00.936Z,1.97
2023-03-29T13:10:41.201Z,3.67
2023-03-29T13:13:20.975Z,1.60
2023-03-29T13:15:49.756Z,2.07
2023-03-29T13:18:25.485Z,2.40
2023-03-29T13:24:42.978Z,6.60
2023-03-29T13:27:21.663Z,6.17
2023-03-29T13:30:12.164Z,3.03
2023-03-29T13:32:57.230Z,1.97
2023-03-29T13:35:33.408Z,1.10
2023-03-29T13:38:06.427Z,2.20
2023-03-29T13:40:43.625Z,3.47
2023-03-29T13:43:12.846Z,2.07
2023-03-29T13:45:41.439Z,4.90
2023-03-29T13:48:28.146Z,5.77
2023-03-29T13:50:58.489Z,2.17
2023-03-29T13:53:29.986Z,6.00
2023-03-29T13:55:59.595Z,3.63
2023-03-29T13:58:34.420Z,5.37
2023-03-29T14:01:05.039Z,1.90
2023-03-29T14:03:41.180Z,3.93
2023-03-29T14:06:12.206Z,2.70
2023-03-29T14:08:42.016Z,2.43
2023-03-29T14:11:14.742Z,3.13
2023-03-29T14:13:43.431Z,4.23
2023-03-29T14:16:13.759Z,1.43
2023-03-29T14:18:44.724Z,2.17
2023-03-29T14:21:14.324Z,2.20
2023-03-29T14:23:46.171Z,2.63
2023-03-29T14:26:18.771Z,2.80
2023-03-29T14:28:47.857Z,1.60
2023-03-29T14:31:20.363Z,2.57
2023-03-29T14:33:53.341Z,7.10
2023-03-29T14:36:22.492Z,3.73
2023-03-29T14:38:53.320Z,3.07
2023-03-29T14:41:24.364Z,2.90
2023-03-29T14:43:52.900Z,2.63
2023-03-29T14:46:22.363Z,3.37
2023-03-29T14:48:52.369Z,2.07
2023-03-29T14:51:23.400Z,2.13
2023-03-29T14:53:52.000Z,3.93
2023-03-29T14:56:24.245Z,3.13
2023-03-29T14:58:55.782Z,2.60
2023-03-29T15:01:25.516Z,2.73
2023-03-29T15:03:57.926Z,5.53
2023-03-29T15:06:27.060Z,1.97
2023-03-29T15:09:05.285Z,3.43
2023-03-29T15:11:35.146Z,4.00
2023-03-29T15:14:04.897Z,3.00
2023-03-29T15:16:33.481Z,3.60
2023-03-29T15:19:04.473Z,4.23
2023-03-29T15:21:34.596Z,2.17
2023-03-29T15:24:04.343Z,4.37
2023-03-29T15:26:33.659Z,1.60
2023-03-29T15:29:08.901Z,6.93
2023-03-29T15:31:38.557Z,3.03
2023-03-29T15:34:09.688Z,2.30
2023-03-29T15:36:42.298Z,1.40
2023-03-29T15:39:12.562Z,1.47
2023-03-29T15:41:41.150Z,1.40
2023-03-29T15:44:09.956Z,2.07
2023-03-29T15:46:38.578Z,2.20
2023-03-29T15:49:11.613Z,4.43
2023-03-29T15:51:40.116Z,4.10
2023-03-29T15:54:09.472Z,2.23
2023-03-29T15:56:42.586Z,1.93
2023-03-29T15:59:13.254Z,1.90
2023-03-29T16:01:41.837Z,2.37
2023-03-29T16:04:15.198Z,3.03
2023-03-29T16:06:44.276Z,3.13
2023-03-29T16:09:13.073Z,4.53
2023-03-29T16:11:42.154Z,2.80
2023-03-29T16:14:19.643Z,1.83
2023-03-29T16:16:48.725Z,4.13
2023-03-29T16:19:22.845Z,2.33
2023-03-29T16:21:57.886Z,3.43
2023-03-29T16:24:26.939Z,2.40
2023-03-29T16:26:56.033Z,2.60
2023-03-29T16:29:34.165Z,2.87
2023-03-29T16:32:04.614Z,4.03
2023-03-29T16:34:38.114Z,3.40
2023-03-29T16:37:06.593Z,8.93
2023-03-29T16:39:35.040Z,2.97
2023-03-29T16:42:03.811Z,4.47
2023-03-29T16:44:32.269Z,3.43
2023-03-29T16:47:00.923Z,2.73
2023-03-29T16:49:29.439Z,5.20
2023-03-29T16:51:59.931Z,7.17
2023-03-29T16:54:29.667Z,3.60
2023-03-29T16:56:58.259Z,4.67
2023-03-29T16:59:27.127Z,5.10
2023-03-29T17:01:55.807Z,9.03
2023-03-29T17:04:24.226Z,7.37
2023-03-29T17:06:53.419Z,3.17
2023-03-29T17:09:24.053Z,7.00
2023-03-29T17:11:52.463Z,5.17
2023-03-29T17:14:21.152Z,4.03
2023-03-29T17:16:50.028Z,2.97
2023-03-29T17:19:18.480Z,6.33
2023-03-29T17:21:46.836Z,3.23
2023-03-29T17:24:15.312Z,8.57
2023-03-29T17:26:45.898Z,4.83
2023-03-29T17:29:14.488Z,5.30
2023-03-29T17:31:47.867Z,3.00
2023-03-29T17:34:18.483Z,4.73
2023-03-29T17:36:53.739Z,5.30
2023-03-29T17:39:31.361Z,4.73
2023-03-29T17:42:05.558Z,5.53
2023-03-29T17:47:30.191Z,4.93
2023-03-29T17:50:04.448Z,6.37
2023-03-29T17:58:30.369Z,6.73
2023-03-29T18:01:01.719Z,4.70
2023-03-29T18:06:12.728Z,4.33
2023-03-29T18:08:42.412Z,4.13
2023-03-29T18:11:12.829Z,9.07
2023-03-29T18:13:45.598Z,6.63
2023-03-29T18:16:14.370Z,4.03
2023-03-29T18:18:44.056Z,8.80
2023-03-29T18:24:04.440Z,5.23
2023-03-29T18:26:33.800Z,7.57
2023-03-29T18:32:16.660Z,5.03
2023-03-29T18:34:45.215Z,3.50
2023-03-29T18:37:15.356Z,7.27
2023-03-29T18:39:44.734Z,5.23
2023-03-29T18:42:14.209Z,9.40
2023-03-29T18:44:44.280Z,7.13
2023-03-29T18:47:12.965Z,8.17
2023-03-29T18:49:45.406Z,3.47
2023-03-29T18:52:13.919Z,4.40
2023-03-29T18:54:43.073Z,5.47
2023-03-29T18:57:12.617Z,6.03
2023-03-29T18:59:41.199Z,9.03
2023-03-29T19:02:11.619Z,4.90
2023-03-29T19:04:40.095Z,3.33
2023-03-29T19:07:08.971Z,5.67
2023-03-29T19:09:37.715Z,8.20
2023-03-29T19:12:06.504Z,8.97
2023-03-29T19:14:34.922Z,6.83
2023-03-29T19:17:03.440Z,9.73
2023-03-29T19:26:09.268Z,7.83
2023-03-29T19:28:39.484Z,9.87
2023-03-29T19:31:09.791Z,3.87
2023-03-29T19:34:03.810Z,4.60
2023-03-29T19:36:42.808Z,5.73
2023-03-29T19:39:11.379Z,8.27
2023-03-29T19:41:41.891Z,8.37
2023-03-29T19:44:11.879Z,7.47
2023-03-29T19:46:40.720Z,9.77
2023-03-29T19:49:14.916Z,6.57
2023-03-29T19:51:43.439Z,5.43
2023-03-29T19:54:12.906Z,7.63
2023-03-29T19:56:42.829Z,8.53
2023-03-29T19:59:14.818Z,5.23
2023-03-29T20:01:50.888Z,7.10
2023-03-29T20:04:31.663Z,6.27
2023-03-29T20:07:00.946Z,3.70
2023-03-29T20:09:29.464Z,5.97
2023-03-29T20:11:58.033Z,10.03
2023-03-29T20:14:28.324Z,5.93
2023-03-29T20:16:56.903Z,5.33
2023-03-29T20:19:25.320Z,7.67
2023-03-29T20:21:57.774Z,14.30
2023-03-29T20:24:27.041Z,8.47
2023-03-29T20:26:55.512Z,4.57
2023-03-29T20:29:24.241Z,9.27
2023-03-29T20:31:54.082Z,8.53
2023-03-29T20:34:22.469Z,6.80
2023-03-29T20:36:51.041Z,4.63
2023-03-29T20:39:19.669Z,7.03
2023-03-29T20:41:48.812Z,4.37
2023-03-29T20:44:18.471Z,8.30
2023-03-29T20:46:54.529Z,4.63
2023-03-29T20:49:26.161Z,7.23
2023-03-29T20:52:03.270Z,6.30
2023-03-29T20:54:33.188Z,5.27
2023-03-29T20:57:01.603Z,6.57
2023-03-29T20:59:29.892Z,8.07
2023-03-29T21:02:00.370Z,4.87
2023-03-29T21:04:30.740Z,7.53
2023-03-29T21:07:01.676Z,4.60
2023-03-29T21:09:34.214Z,8.40
2023-03-29T21:12:03.008Z,6.77
2023-03-29T21:14:33.033Z,5.57
2023-03-29T21:17:01.473Z,9.07
2023-03-29T21:19:31.282Z,5.23
2023-03-29T21:21:59.564Z,7.63
2023-03-29T21:24:27.832Z,4.60
2023-03-29T21:26:56.185Z,6.83
2023-03-29T21:29:24.540Z,8.87
2023-03-29T21:31:52.887Z,5.17
2023-03-29T21:34:21.413Z,9.40
2023-03-29T21:36:51.215Z,7.97
2023-03-29T21:39:19.557Z,9.73
2023-03-29T21:41:47.924Z,8.43
2023-03-29T21:44:16.154Z,7.50
2023-03-29T21:46:44.527Z,5.40
2023-03-29T21:49:12.952Z,6.27
2023-03-29T21:51:41.350Z,4.57
2023-03-29T21:54:11.162Z,9.00
2023-03-29T21:56:39.481Z,8.33
2023-03-29T21:59:07.932Z,8.07
2023-03-29T22:01:36.315Z,6.50
2023-03-29T22:04:04.801Z,10.33
2023-03-29T22:06:33.050Z,6.50
2023-03-29T22:09:03.037Z,7.73
2023-03-29T22:11:34.598Z,8.17
2023-03-29T22:14:04.094Z,7.13
2023-03-29T22:16:32.521Z,3.70
2023-03-29T22:19:00.828Z,5.50
2023-03-29T22:21:31.053Z,5.83
2023-03-29T22:24:00.642Z,7.80
2023-03-29T22:26:30.451Z,5.00
2023-03-29T22:29:00.611Z,3.70
2023-03-29T22:31:30.401Z,5.20
2023-03-29T22:34:00.665Z,6.90
2023-03-29T22:36:29.956Z,6.20
2023-03-29T22:38:58.505Z,5.57
2023-03-29T22:41:27.833Z,9.03
2023-03-29T22:43:57.348Z,9.03
2023-03-29T22:46:27.606Z,8.30
2023-03-29T22:48:56.133Z,4.60
2023-03-29T22:51:24.785Z,3.87
2023-03-29T22:53:53.217Z,6.57
2023-03-29T22:56:22.042Z,2.77
2023-03-29T22:58:51.029Z,5.50
2023-03-29T23:01:19.361Z,4.37
2023-03-29T23:03:49.086Z,2.83
2023-03-29T23:06:17.451Z,6.60
2023-03-29T23:08:45.914Z,5.50
2023-03-29T23:11:14.150Z,3.67
2023-03-29T23:13:42.465Z,4.33
2023-03-29T23:16:10.974Z,4.67
2023-03-29T23:18:39.447Z,7.77
2023-03-29T23:21:10.506Z,4.73
2023-03-29T23:23:38.881Z,7.77
2023-03-29T23:26:08.359Z,4.33
2023-03-29T23:28:36.870Z,4.93
2023-03-29T23:31:06.375Z,6.43
2023-03-29T23:33:35.967Z,11.60
2023-03-29T23:36:05.664Z,4.93
2023-03-29T23:38:35.953Z,7.60
2023-03-29T23:41:05.684Z,6.93
2023-03-29T23:43:35.307Z,7.40
2023-03-29T23:46:04.331Z,5.43
2023-03-29T23:48:34.309Z,4.63
2023-03-29T23:51:03.116Z,7.07
2023-03-29T23:53:32.087Z,4.23
2023-03-29T23:56:02.468Z,5.30
2023-03-29T23:58:31.820Z,3.10
